Time;durP1;ratioP1;P1;durP2;ratioP2;P2;SDS_P1;SDS_P2;PMS_P1;PMS_P2;Temp;Humidity;BMP_temperature;BMP_pressure;BME280_temperature;BME280_humidity;BME280_pressure;Samples;Min_cycle;Max_cycle;Signal;HPM_P1;HPM_P2
2022/03/21 00:02:09;;;;;;;60.95;47.33;;;;;;;4.67;55.31;102865.34;5029988;28;20033;-62
2022/03/21 00:04:35;;;;;;;64.07;48.63;;;;;;;4.66;55.23;102871.00;5024899;28;20350;-61
2022/03/21 00:07:00;;;;;;;64.45;48.28;;;;;;;4.62;54.92;102873.22;5032185;28;20028;-61
2022/03/21 00:09:25;;;;;;;63.88;47.30;;;;;;;4.61;55.10;102876.16;5029656;28;20041;-61
2022/03/21 00:11:50;;;;;;;63.83;48.70;;;;;;;4.63;55.47;102865.84;5032367;28;20060;-61
2022/03/21 00:14:16;;;;;;;66.18;47.20;;;;;;;4.58;55.26;102863.59;5031698;28;20029;-61
2022/03/21 00:16:41;;;;;;;62.85;47.75;;;;;;;4.52;55.19;102866.13;5028440;28;20017;-62
2022/03/21 00:19:07;;;;;;;63.38;47.05;;;;;;;4.51;55.37;102869.91;5032132;28;20389;-61
2022/03/21 00:21:34;;;;;;;62.40;48.42;;;;;;;4.45;55.28;102882.44;5031788;28;20069;-61
2022/03/21 00:24:00;;;;;;;60.08;46.15;;;;;;;4.40;55.92;102873.78;5029588;28;20037;-62
2022/03/21 00:26:26;;;;;;;61.17;47.60;;;;;;;4.41;55.59;102881.88;5030283;28;20373;-61
2022/03/21 00:28:51;;;;;;;65.72;48.78;;;;;;;4.41;55.09;102883.78;5031276;28;20069;-61
2022/03/21 00:31:16;;;;;;;61.75;46.97;;;;;;;4.45;55.81;102882.44;5029672;28;20029;-61
2022/03/21 00:33:42;;;;;;;63.00;47.88;;;;;;;4.42;55.37;102888.25;5032679;28;20076;-62
2022/03/21 00:36:08;;;;;;;65.18;48.35;;;;;;;4.37;55.80;102879.63;5029602;28;20032;-62
2022/03/21 00:38:37;;;;;;;63.13;48.53;;;;;;;4.33;55.56;102881.00;5013735;28;20034;-61
2022/03/21 00:41:06;;;;;;;63.08;47.83;;;;;;;4.32;55.81;102882.88;5023780;28;20025;-62
2022/03/21 00:43:34;;;;;;;64.50;48.15;;;;;;;4.24;55.91;102885.53;5030500;28;20495;-61
2022/03/21 00:46:02;;;;;;;63.35;46.97;;;;;;;4.25;56.21;102887.28;5025245;28;20029;-62
2022/03/21 00:48:31;;;;;;;66.18;48.88;;;;;;;4.23;55.84;102885.72;5013840;28;20092;-61
2022/03/21 00:50:58;;;;;;;63.28;47.35;;;;;;;4.21;55.95;102896.88;5029842;28;20536;-62
2022/03/21 00:53:24;;;;;;;62.22;46.53;;;;;;;4.19;55.80;102896.16;5030435;28;20584;-61
2022/03/21 00:55:51;;;;;;;65.95;48.08;;;;;;;4.16;55.77;102888.25;5029978;28;20033;-61
2022/03/21 00:58:17;;;;;;;60.90;46.13;;;;;;;4.18;56.23;102898.06;5028465;28;20040;-61
2022/03/21 01:00:42;;;;;;;59.58;46.53;;;;;;;4.25;56.09;102887.28;5028650;28;20513;-62
2022/03/21 01:03:08;;;;;;;60.83;46.53;;;;;;;4.21;55.55;102885.03;5031891;28;20472;-61
2022/03/21 01:05:34;;;;;;;62.83;47.15;;;;;;;4.18;55.17;102898.06;5026863;28;20045;-61
2022/03/21 01:08:02;;;;;;;58.25;45.83;;;;;;;4.16;55.84;102893.72;5031664;28;20025;-61
2022/03/21 01:10:28;;;;;;;58.95;45.47;;;;;;;4.12;55.85;102901.44;5027262;28;20769;-61
2022/03/21 01:12:54;;;;;;;57.83;46.10;;;;;;;4.09;55.53;102893.53;5015193;28;20040;-62
2022/03/21 01:15:21;;;;;;;62.15;46.33;;;;;;;4.04;56.50;102901.38;5030268;28;20025;-61
2022/03/21 01:17:48;;;;;;;61.20;46.92;;;;;;;4.06;56.03;102899.34;5030721;28;20025;-62
2022/03/21 01:20:16;;;;;;;58.90;45.92;;;;;;;4.01;55.87;102901.72;5028597;28;20048;-61
2022/03/21 01:22:41;;;;;;;60.53;47.30;;;;;;;4.05;55.97;102896.75;5029730;28;20037;-60
2022/03/21 01:25:11;;;;;;;61.20;45.55;;;;;;;4.05;56.03;102916.88;5029342;28;20022;-60
2022/03/21 01:27:37;;;;;;;63.60;47.88;;;;;;;4.15;56.46;102903.00;5031464;28;20021;-60
2022/03/21 01:30:08;;;;;;;63.72;48.17;;;;;;;4.10;56.26;102905.38;5030146;28;20446;-61
2022/03/21 01:32:33;;;;;;;62.88;47.15;;;;;;;4.07;56.34;102906.56;5029385;28;20104;-61
2022/03/21 01:34:58;;;;;;;62.45;48.65;;;;;;;4.01;56.42;102901.72;5030804;28;20075;-61
2022/03/21 01:37:24;;;;;;;64.03;49.47;;;;;;;3.98;56.61;102901.19;5030241;28;20037;-61
2022/03/21 01:39:49;;;;;;;66.72;49.17;;;;;;;3.91;56.59;102910.03;5029699;28;20058;-61
2022/03/21 01:42:14;;;;;;;65.50;48.50;;;;;;;3.93;56.72;102902.53;5031077;28;20025;-61
2022/03/21 01:44:55;;;;;;;65.32;49.42;;;;;;;3.99;56.27;102911.13;5024517;28;20026;-61
2022/03/21 01:47:20;;;;;;;65.05;48.40;;;;;;;3.94;55.96;102917.13;5021380;28;20469;-61
2022/03/21 01:49:45;;;;;;;64.10;46.92;;;;;;;3.87;56.09;102910.53;5031351;28;20032;-61
2022/03/21 01:52:11;;;;;;;67.35;49.40;;;;;;;3.86;55.94;102909.66;5029952;28;20114;-61
2022/03/21 01:57:21;;;;;;;66.03;48.20;;;;;;;3.79;56.39;102893.97;5029200;28;20048;-61
2022/03/21 01:59:48;;;;;;;63.50;48.47;;;;;;;3.72;56.96;102899.22;5029813;28;20048;-60
2022/03/21 02:02:13;;;;;;;65.38;50.30;;;;;;;3.74;56.75;102902.69;5025646;28;20477;-60
2022/03/21 02:04:39;;;;;;;66.60;49.78;;;;;;;3.76;56.62;102908.00;5030443;28;20017;-60
2022/03/21 02:07:05;;;;;;;68.68;49.45;;;;;;;3.71;56.97;102904.88;5030437;28;20083;-60
2022/03/21 02:09:31;;;;;;;64.82;49.53;;;;;;;3.69;57.01;102905.03;5028581;28;20075;-61
2022/03/21 02:11:56;;;;;;;67.68;48.22;;;;;;;3.65;56.21;102901.72;5031052;28;20053;-61
2022/03/21 02:14:22;;;;;;;71.53;49.10;;;;;;;3.64;57.15;102901.91;5036120;28;20595;-61
2022/03/21 02:16:47;;;;;;;65.80;48.10;;;;;;;3.66;57.34;102908.97;5035629;28;20469;-60
2022/03/21 02:19:15;;;;;;;63.90;47.17;;;;;;;3.63;56.63;102902.94;5033996;28;20034;-60
2022/03/21 02:21:48;;;;;;;65.32;49.90;;;;;;;3.58;56.71;102917.13;5036093;28;20033;-61
2022/03/21 02:24:26;;;;;;;;;;;;;;;3.85;55.68;102913.44;5037401;28;20029;-60
2022/03/21 02:26:52;;;;;;;67.05;47.35;;;;;;;3.59;56.70;102920.75;5037603;28;19917;-60
2022/03/21 02:29:18;;;;;;;58.13;45.95;;;;;;;3.55;57.35;102911.94;5035876;28;20136;-60
2022/03/21 02:31:44;;;;;;;67.20;47.58;;;;;;;3.62;57.19;102906.69;5035475;28;20408;-60
2022/03/21 02:34:10;;;;;;;65.97;48.22;;;;;;;3.55;56.69;102916.59;5037328;28;20080;-61
2022/03/21 02:36:37;;;;;;;65.32;48.72;;;;;;;3.50;57.44;102919.78;5034943;28;20043;-60
2022/03/21 02:39:02;;;;;;;64.53;48.50;;;;;;;3.48;57.02;102916.34;5034783;28;20029;-60
2022/03/21 02:41:27;;;;;;;65.72;48.83;;;;;;;3.45;57.11;102916.63;5037850;28;20362;-61
2022/03/21 02:44:00;;;;;;;68.75;49.25;;;;;;;3.50;56.96;102919.78;5034545;28;20451;-61
2022/03/21 02:46:26;;;;;;;63.72;47.95;;;;;;;3.46;56.76;102912.91;5032317;28;20028;-61
2022/03/21 02:48:53;;;;;;;62.45;47.38;;;;;;;3.43;57.31;102924.19;5035401;28;20392;-61
2022/03/21 02:51:20;;;;;;;64.55;49.05;;;;;;;3.38;57.22;102912.78;5037103;28;20040;-63
2022/03/21 02:53:48;;;;;;;65.00;48.90;;;;;;;3.35;57.67;102910.38;5038169;28;20507;-62
2022/03/21 02:56:13;;;;;;;69.25;48.92;;;;;;;3.33;56.85;102906.91;5035718;28;20364;-61
2022/03/21 02:58:40;;;;;;;63.20;47.72;;;;;;;3.32;57.58;102905.19;5035712;28;20503;-61
2022/03/21 03:01:05;;;;;;;64.68;49.22;;;;;;;3.28;57.48;102907.38;5035372;28;20457;-61
2022/03/21 03:03:31;;;;;;;65.97;49.25;;;;;;;3.29;57.93;102910.97;5037516;28;20108;-61
2022/03/21 03:05:56;;;;;;;64.22;48.97;;;;;;;3.30;57.91;102908.09;5034149;28;20038;-61
2022/03/21 03:08:21;;;;;;;68.68;49.65;;;;;;;3.29;57.67;102902.75;5036939;28;20064;-61
2022/03/21 03:10:46;;;;;;;75.93;51.35;;;;;;;3.27;57.59;102908.41;5033285;28;20072;-61
2022/03/21 03:13:12;;;;;;;66.88;49.25;;;;;;;3.23;57.77;102912.47;5037064;28;20061;-61
2022/03/21 03:15:37;;;;;;;68.45;50.08;;;;;;;3.25;57.50;102915.91;5036445;28;20503;-60
2022/03/21 03:18:03;;;;;;;68.55;50.90;;;;;;;3.24;57.39;102911.44;5036201;28;20017;-62
2022/03/21 03:20:28;;;;;;;67.45;50.10;;;;;;;3.20;57.79;102908.16;5034341;28;20401;-61
2022/03/21 03:22:55;;;;;;;64.95;48.35;;;;;;;3.22;57.92;102921.69;5036863;28;20648;-61
2022/03/21 03:25:20;;;;;;;67.57;48.88;;;;;;;3.16;57.58;102914.97;5012279;28;20184;-61
2022/03/21 03:27:48;;;;;;;68.72;49.72;;;;;;;3.17;57.96;102911.19;5026461;28;20540;-60
2022/03/21 03:30:13;;;;;;;67.45;49.28;;;;;;;3.15;58.10;102913.25;5034000;28;20033;-61
2022/03/21 03:32:40;;;;;;;64.90;49.30;;;;;;;3.17;57.79;102913.06;5030024;28;20095;-61
2022/03/21 03:35:06;;;;;;;71.25;49.63;;;;;;;3.11;57.96;102917.31;5032937;28;20036;-61
2022/03/21 03:37:31;;;;;;;68.10;50.13;;;;;;;3.10;58.15;102921.03;5033212;28;20037;-60
2022/03/21 03:39:56;;;;;;;67.55;49.60;;;;;;;3.15;58.67;102931.59;5026600;28;20033;-61
2022/03/21 03:42:22;;;;;;;69.93;50.40;;;;;;;3.15;58.03;102926.09;5032387;28;20084;-61
2022/03/21 03:44:47;;;;;;;71.55;49.92;;;;;;;3.16;57.72;102928.69;5032545;28;20474;-60
2022/03/21 03:47:12;;;;;;;68.22;49.83;;;;;;;3.12;58.09;102932.75;5026924;28;20087;-60
2022/03/21 03:49:37;;;;;;;72.88;50.78;;;;;;;3.10;57.84;102923.78;5032641;28;20390;-61
2022/03/21 03:52:03;;;;;;;73.85;49.55;;;;;;;3.04;57.76;102927.16;5030846;28;20030;-61
2022/03/21 03:54:28;;;;;;;67.93;48.97;;;;;;;3.04;58.79;102923.56;5031171;28;20056;-60
2022/03/21 03:56:54;;;;;;;69.07;49.83;;;;;;;3.04;58.14;102924.41;5031937;28;20768;-61
2022/03/21 03:59:22;;;;;;;69.07;50.78;;;;;;;3.05;57.91;102926.13;5032411;28;20057;-60
2022/03/21 04:01:47;;;;;;;67.53;48.95;;;;;;;3.01;57.83;102934.84;5029998;28;20064;-60
2022/03/21 04:04:12;;;;;;;66.03;49.45;;;;;;;3.00;58.19;102931.22;5032397;28;20030;-60
2022/03/21 04:06:37;;;;;;;69.25;50.10;;;;;;;2.99;57.79;102939.59;5030978;28;20039;-60
2022/03/21 04:09:03;;;;;;;71.32;49.10;;;;;;;3.08;58.88;102930.47;5030699;28;20047;-60
2022/03/21 04:11:28;;;;;;;66.80;49.08;;;;;;;3.02;58.16;102942.91;5031381;28;20031;-60
2022/03/21 04:13:53;;;;;;;72.47;51.63;;;;;;;3.00;58.57;102931.22;5029013;28;20037;-60
2022/03/21 04:16:19;;;;;;;76.78;49.55;;;;;;;2.99;58.72;102937.75;5028657;28;20051;-61
2022/03/21 04:18:44;;;;;;;67.45;49.55;;;;;;;2.95;58.27;102941.81;5031746;28;20091;-60
2022/03/21 04:21:10;;;;;;;73.22;50.90;;;;;;;2.89;58.91;102937.78;5029006;28;20469;-60
2022/03/21 04:23:35;;;;;;;66.78;50.10;;;;;;;2.93;58.21;102930.97;5031973;28;20476;-60
2022/03/21 04:26:02;;;;;;;67.72;49.80;;;;;;;2.93;58.62;102941.06;5030934;28;20037;-60
2022/03/21 04:28:27;;;;;;;69.47;50.67;;;;;;;2.90;58.11;102933.13;5020474;28;20116;-60
2022/03/21 04:30:52;;;;;;;71.50;50.83;;;;;;;2.90;57.85;102946.84;5026072;28;20136;-60
2022/03/21 04:33:18;;;;;;;69.35;50.20;;;;;;;2.86;58.45;102931.72;5029010;28;20021;-61
2022/03/21 04:35:44;;;;;;;68.32;50.08;;;;;;;2.89;58.65;102934.16;5028779;28;20064;-61
2022/03/21 04:38:17;;;;;;;71.18;52.28;;;;;;;2.85;58.24;102928.13;5031878;28;20096;-61
2022/03/21 04:40:46;;;;;;;69.47;50.92;;;;;;;2.82;58.67;102930.28;5030547;28;20037;-61
2022/03/21 04:43:13;;;;;;;67.18;49.53;;;;;;;2.78;58.51;102939.84;5030722;28;20029;-61
2022/03/21 04:45:39;;;;;;;78.28;52.53;;;;;;;2.74;58.73;102928.31;5030784;28;20030;-61
2022/03/21 04:48:04;;;;;;;68.72;50.28;;;;;;;2.74;59.51;102930.19;5013387;28;20088;-61
2022/03/21 04:50:31;;;;;;;72.78;51.05;;;;;;;2.70;58.87;102932.38;5026651;28;20145;-61
2022/03/21 04:52:57;;;;;;;67.43;50.58;;;;;;;2.68;59.23;102932.53;5031804;28;20140;-61
2022/03/21 04:55:23;;;;;;;68.43;50.15;;;;;;;2.70;59.07;102935.09;5031207;28;20087;-61
2022/03/21 04:57:48;;;;;;;73.75;51.45;;;;;;;2.68;58.84;102935.28;5030670;28;20041;-61
2022/03/21 05:00:14;;;;;;;66.28;49.42;;;;;;;2.68;59.25;102940.75;5028660;28;20048;-61
2022/03/21 05:02:40;;;;;;;72.13;49.88;;;;;;;2.64;59.53;102938.47;5031126;28;20033;-61
2022/03/21 05:05:06;;;;;;;69.65;50.00;;;;;;;2.68;59.59;102943.50;5031304;28;20083;-61
2022/03/21 05:07:31;;;;;;;69.13;50.63;;;;;;;2.69;58.61;102950.69;5031204;28;20033;-61
2022/03/21 05:09:57;;;;;;;74.63;50.90;;;;;;;2.72;59.29;102954.16;5030082;28;20100;-60
2022/03/21 05:12:23;;;;;;;69.70;51.38;;;;;;;2.68;59.61;102956.34;5030698;28;20041;-61
2022/03/21 05:14:48;;;;;;;67.43;49.38;;;;;;;2.68;59.28;102956.34;5030282;28;20052;-61
2022/03/21 05:17:17;;;;;;;69.45;48.80;;;;;;;2.67;58.71;102963.72;5029760;28;20098;-61
2022/03/21 05:19:43;;;;;;;68.00;49.00;;;;;;;2.65;59.18;102956.63;5030930;28;20049;-61
2022/03/21 05:22:09;;;;;;;70.05;49.47;;;;;;;2.62;59.17;102952.31;5030258;28;20025;-61
2022/03/21 05:35:52;;;;;;;71.00;50.65;;;;;;;2.58;59.84;102947.28;5010008;28;20559;-61
2022/03/21 05:35:54;;;;;;;71.10;51.65;;;;;;;2.58;59.03;102955.50;5014599;28;20033;-61
2022/03/21 05:38:22;;;;;;;74.55;50.83;;;;;;;2.60;59.25;102961.72;5023701;28;20025;-61
2022/03/21 05:40:48;;;;;;;76.28;50.60;;;;;;;2.58;59.07;102953.63;5021160;28;20043;-60
2022/03/21 05:43:13;;;;;;;74.03;49.25;;;;;;;2.62;59.19;102960.53;5022439;28;20495;-60
2022/03/21 05:45:38;;;;;;;78.70;50.65;;;;;;;2.62;59.94;102955.03;5014262;28;20029;-60
2022/03/21 05:50:48;;;;;;;74.72;50.55;;;;;;;2.65;59.13;102954.75;5027827;28;20044;-61
2022/03/21 05:53:14;;;;;;;71.72;50.30;;;;;;;2.62;59.81;102956.94;5027167;28;20029;-61
2022/03/21 05:55:39;;;;;;;76.20;50.35;;;;;;;2.61;59.97;102961.56;5026185;28;20069;-61
2022/03/21 05:58:05;;;;;;;73.55;50.72;;;;;;;2.57;59.55;102962.88;5020746;28;20044;-61
2022/03/21 06:00:30;;;;;;;75.95;49.67;;;;;;;2.56;60.19;102963.88;5027514;28;20104;-61
2022/03/21 06:02:55;;;;;;;76.20;50.60;;;;;;;2.54;60.16;102965.03;5030830;28;20427;-61
2022/03/21 06:05:27;;;;;;;75.72;50.83;;;;;;;2.55;59.95;102967.63;5030574;28;20520;-61
2022/03/21 06:07:54;;;;;;;75.47;51.95;;;;;;;2.58;60.58;102972.81;5026078;28;20025;-61
2022/03/21 06:10:20;;;;;;;72.50;49.40;;;;;;;2.58;60.30;102964.59;5021801;28;20042;-61
2022/03/21 06:12:45;;;;;;;72.03;49.80;;;;;;;2.59;60.20;102971.78;5016268;28;20561;-61
2022/03/21 06:15:11;;;;;;;71.00;50.30;;;;;;;2.64;60.58;102972.22;5034044;28;20026;-61
2022/03/21 06:17:38;;;;;;;69.15;50.63;;;;;;;2.62;61.17;102979.72;5011065;28;20076;-61
2022/03/21 06:20:09;;;;;;;76.32;50.70;;;;;;;2.65;61.25;102976.69;5011507;28;20101;-61
2022/03/21 06:22:34;;;;;;;77.35;50.90;;;;;;;2.66;60.92;102981.16;5024777;28;20033;-60
2022/03/21 06:24:59;;;;;;;79.38;50.72;;;;;;;2.69;61.02;102969.03;5020904;28;20120;-61
2022/03/21 06:27:25;;;;;;;75.03;50.40;;;;;;;2.70;61.27;102982.56;5021791;28;20025;-61
2022/03/21 06:29:51;;;;;;;72.28;50.35;;;;;;;2.74;61.19;102985.03;5017300;28;20488;-61
2022/03/21 06:32:16;;;;;;;76.35;51.75;;;;;;;2.78;61.34;102984.56;5018323;28;20037;-61
2022/03/21 06:34:44;;;;;;;75.57;52.40;;;;;;;2.79;61.69;102982.69;5027485;28;20030;-61
2022/03/21 06:37:10;;;;;;;77.75;52.78;;;;;;;2.82;61.25;102993.38;5029370;28;20034;-62
2022/03/21 06:39:35;;;;;;;79.28;52.08;;;;;;;2.83;61.52;102992.34;5026008;28;20500;-62
2022/03/21 06:42:01;;;;;;;77.15;51.50;;;;;;;2.87;61.17;102993.78;5021979;28;20036;-61
2022/03/21 06:44:26;;;;;;;73.65;50.83;;;;;;;2.91;62.25;102990.63;5016400;28;20377;-61
2022/03/21 06:46:51;;;;;;;76.10;51.92;;;;;;;2.95;61.88;102997.53;5024758;28;20099;-61
2022/03/21 06:49:17;;;;;;;79.78;52.97;;;;;;;3.02;62.18;102992.28;5025331;28;20037;-62
2022/03/21 06:51:42;;;;;;;82.28;51.50;;;;;;;3.06;61.82;102990.09;5024172;28;20033;-60
2022/03/21 06:54:07;;;;;;;80.47;51.17;;;;;;;3.08;62.24;103001.81;5022632;28;20026;-60
2022/03/21 06:56:33;;;;;;;72.40;48.30;;;;;;;3.14;62.55;103006.66;5016673;28;20029;-59
2022/03/21 06:58:58;;;;;;;73.57;51.75;;;;;;;3.22;62.44;103005.91;5023918;28;22320;-60
2022/03/21 07:01:23;;;;;;;73.53;48.20;;;;;;;3.33;61.85;103008.47;5020213;28;20033;-60
2022/03/21 07:03:49;;;;;;;72.15;49.53;;;;;;;3.43;63.03;103012.88;5022296;28;20079;-60
2022/03/21 07:06:15;;;;;;;74.13;49.05;;;;;;;3.50;63.07;103017.75;5025577;28;20034;-61
2022/03/21 07:08:51;;;;;;;76.68;50.78;;;;;;;3.57;62.72;103008.75;5034235;28;20082;-61
2022/03/21 07:11:18;;;;;;;77.10;50.05;;;;;;;3.62;63.52;103016.53;5031456;28;20046;-61
2022/03/21 07:13:43;;;;;;;67.05;48.25;;;;;;;3.72;62.89;103016.47;5037427;28;20037;-61
2022/03/21 07:16:10;;;;;;;77.68;50.83;;;;;;;3.80;63.47;103022.91;5023105;28;20056;-61
2022/03/21 07:18:35;;;;;;;71.50;49.17;;;;;;;3.88;63.44;103031.22;5016148;28;20065;-61
2022/03/21 07:21:04;;;;;;;66.55;48.58;;;;;;;3.97;63.98;103025.81;5031410;28;20121;-62
2022/03/21 07:23:29;;;;;;;70.72;49.53;;;;;;;4.03;64.53;103023.31;5028654;28;20025;-61
2022/03/21 07:25:55;;;;;;;71.25;50.22;;;;;;;4.09;64.58;103024.59;5029528;28;20033;-61
2022/03/21 07:28:20;;;;;;;69.50;51.00;;;;;;;4.16;64.52;103023.78;5029215;28;20029;-62
2022/03/21 07:30:45;;;;;;;74.20;50.15;;;;;;;4.23;64.66;103026.75;5023295;28;20033;-62
2022/03/21 07:33:12;;;;;;;74.82;52.92;;;;;;;4.31;64.29;103014.97;5029900;28;20033;-62
2022/03/21 07:35:43;;;;;;;73.80;50.05;;;;;;;4.39;64.63;103021.41;5032953;28;20033;-62
2022/03/21 07:38:08;;;;;;;71.53;49.75;;;;;;;4.54;65.50;103023.59;5026593;28;20048;-61
2022/03/21 07:40:34;;;;;;;80.63;51.33;;;;;;;4.64;66.99;103016.97;5026014;28;20021;-61
2022/03/21 07:42:59;;;;;;;72.25;50.28;;;;;;;4.73;65.92;103017.03;5030240;28;20112;-60
2022/03/21 07:48:12;;;;;;;78.85;49.75;;;;;;;4.99;65.98;103017.88;5016718;28;20040;-60
2022/03/21 07:50:38;;;;;;;73.53;51.53;;;;;;;5.07;67.07;103019.78;5024739;28;20029;-60
2022/03/21 07:53:04;;;;;;;72.65;51.53;;;;;;;5.22;67.35;103014.53;5024763;28;20037;-61
2022/03/21 07:55:31;;;;;;;65.93;47.60;;;;;;;5.36;67.18;103019.44;5033219;28;20030;-60
2022/03/21 07:57:56;;;;;;;58.47;41.47;;;;;;;5.66;68.57;103021.63;5030897;28;20034;-61
2022/03/21 08:00:23;;;;;;;57.42;38.17;;;;;;;6.47;69.37;103019.16;5029414;28;20057;-61
2022/03/21 08:02:52;;;;;;;60.55;38.40;;;;;;;7.06;65.44;103017.84;5031745;28;20049;-60
2022/03/21 08:05:17;;;;;;;61.45;38.97;;;;;;;7.21;64.23;103019.91;5035100;28;20032;-61
2022/03/21 08:07:45;;;;;;;51.88;36.20;;;;;;;7.24;64.68;103016.78;5032555;28;20482;-62
2022/03/21 08:10:11;;;;;;;52.85;36.03;;;;;;;7.30;64.81;103024.34;5029702;28;20120;-60
2022/03/21 08:12:42;;;;;;;51.13;36.05;;;;;;;7.41;65.24;103026.72;5030148;28;20041;-60
2022/03/21 08:15:11;;;;;;;53.17;35.65;;;;;;;7.49;64.21;103029.44;5028101;28;20025;-61
2022/03/21 08:18:01;;;;;;;48.47;32.25;;;;;;;7.61;63.98;103025.25;5033449;28;20026;-61
2022/03/21 08:20:35;;;;;;;43.78;30.60;;;;;;;7.78;63.85;103036.19;5029183;28;20045;-62
2022/03/21 08:23:03;;;;;;;43.38;28.63;;;;;;;7.91;63.25;103027.34;5030645;28;20033;-62
2022/03/21 08:25:28;;;;;;;37.00;25.95;;;;;;;8.05;62.38;103032.06;5035605;28;20021;-61
2022/03/21 08:27:54;;;;;;;47.35;27.40;;;;;;;8.20;62.01;103027.47;5022955;28;20064;-61
2022/03/21 08:30:19;;;;;;;41.40;27.00;;;;;;;8.28;60.75;103027.41;5027595;28;20087;-62
2022/03/21 08:32:46;;;;;;;37.28;25.23;;;;;;;8.47;60.83;103020.53;5030818;28;20456;-61
2022/03/21 08:35:11;;;;;;;33.75;23.20;;;;;;;8.66;60.34;103021.06;5029207;28;20053;-62
2022/03/21 08:37:36;;;;;;;36.65;24.40;;;;;;;8.82;59.32;103023.69;5017062;28;20827;-59
2022/03/21 08:40:03;;;;;;;41.40;24.02;;;;;;;8.93;59.06;103023.22;5024858;28;20025;-61
2022/03/21 08:42:29;;;;;;;37.13;23.33;;;;;;;9.10;58.54;103024.75;5024710;28;20144;-62
2022/03/21 08:44:55;;;;;;;34.17;22.20;;;;;;;9.23;57.04;103026.00;5025194;28;20116;-62
2022/03/21 08:47:20;;;;;;;32.85;21.30;;;;;;;9.27;56.14;103022.66;5031050;28;20021;-59
2022/03/21 08:49:46;;;;;;;31.58;20.63;;;;;;;9.42;56.46;103014.31;5022830;28;20045;-58
2022/03/21 08:52:11;;;;;;;32.13;20.73;;;;;;;9.59;56.48;103015.84;5034358;28;20022;-58
2022/03/21 08:54:36;;;;;;;30.30;20.70;;;;;;;9.78;55.79;103019.03;5028253;28;20068;-60
2022/03/21 08:57:04;;;;;;;27.20;19.45;;;;;;;9.93;54.95;103016.25;5020543;28;20500;-61
2022/03/21 08:59:30;;;;;;;25.83;14.82;;;;;;;10.51;57.50;103023.50;5024951;28;20062;-60
2022/03/21 09:01:55;;;;;;;27.83;19.65;;;;;;;10.43;53.95;103018.06;5029205;28;20461;-60
2022/03/21 09:04:21;;;;;;;29.48;19.35;;;;;;;10.60;53.02;103012.22;5038449;28;20045;-60
2022/03/21 09:06:46;;;;;;;28.98;19.60;;;;;;;10.65;52.98;103010.59;5039554;28;20032;-60
2022/03/21 09:09:11;;;;;;;27.90;19.85;;;;;;;10.70;53.21;103015.53;5028949;28;20381;-60
2022/03/21 09:11:37;;;;;;;30.00;19.75;;;;;;;10.78;52.33;103016.25;5029475;28;20076;-61
2022/03/21 09:14:03;;;;;;;31.80;20.05;;;;;;;10.91;52.33;103018.25;5029136;28;20043;-61
2022/03/21 09:16:29;;;;;;;31.00;21.08;;;;;;;10.98;52.32;103021.09;5026290;28;20112;-61
2022/03/21 09:18:54;;;;;;;31.45;21.02;;;;;;;11.06;51.75;103013.44;5030823;28;20029;-61
2022/03/21 09:21:20;;;;;;;19.90;13.15;;;;;;;11.59;56.91;103020.34;5029768;28;20480;-62
2022/03/21 09:23:45;;;;;;;18.73;14.52;;;;;;;12.14;55.93;103016.50;5030054;28;20029;-60
2022/03/21 09:26:11;;;;;;;25.10;15.30;;;;;;;12.50;54.08;103010.56;5032627;28;20375;-60
2022/03/21 09:28:43;;;;;;;34.67;24.08;;;;;;;12.41;50.52;103010.97;5028786;28;20123;-63
2022/03/21 09:31:10;;;;;;;32.40;21.65;;;;;;;12.41;48.96;103014.63;5042086;28;20095;-64
2022/03/21 09:33:37;;;;;;;30.25;21.15;;;;;;;12.28;49.25;103009.91;5029677;28;20030;-63
2022/03/21 09:36:03;;;;;;;34.28;21.90;;;;;;;12.15;48.84;103000.69;5029627;28;20251;-62
2022/03/21 09:38:29;;;;;;;33.28;22.02;;;;;;;12.20;49.12;103003.69;5029169;28;20123;-62
2022/03/21 09:40:55;;;;;;;32.70;21.63;;;;;;;12.15;49.94;103006.25;5028411;28;20026;-63
2022/03/21 09:43:23;;;;;;;29.85;21.63;;;;;;;12.19;49.80;103001.97;5029647;28;20029;-63
2022/03/21 09:45:48;;;;;;;27.88;19.27;;;;;;;12.16;48.19;103003.25;5024026;28;20075;-63
2022/03/21 09:48:17;;;;;;;33.90;19.85;;;;;;;12.23;48.41;102995.75;5026626;28;20052;-63
2022/03/21 09:50:45;;;;;;;30.83;19.30;;;;;;;12.30;47.84;102998.56;5025810;28;20033;-65
2022/03/21 09:53:14;;;;;;;34.45;19.70;;;;;;;12.37;48.19;102999.41;5029423;28;20031;-65
2022/03/21 09:55:40;;;;;;;20.73;12.32;;;;;;;12.80;52.46;102990.63;5028822;28;20676;-62
2022/03/21 09:58:09;;;;;;;18.65;13.20;;;;;;;13.18;51.30;102987.97;5027410;28;20076;-62
2022/03/21 10:00:35;;;;;;;23.55;18.45;;;;;;;13.19;47.02;102989.69;5024543;28;20045;-62
2022/03/21 10:03:01;;;;;;;20.15;13.48;;;;;;;13.59;50.18;102983.16;5028382;28;20091;-63
2022/03/21 10:05:38;;;;;;;30.30;18.73;;;;;;;13.44;47.42;102983.41;5029992;28;20033;-62
2022/03/21 10:08:17;;;;;;;30.88;18.63;;;;;;;13.34;45.89;102978.31;5028912;28;20034;-62
2022/03/21 10:10:59;;;;;;;31.23;19.33;;;;;;;13.29;46.95;102986.50;5028091;28;20046;-63
2022/03/21 10:13:26;;;;;;;;;;;;;;;13.23;48.40;102979.00;5025329;28;20068;-62
2022/03/21 10:16:13;;;;;;;23.48;17.13;;;;;;;13.26;47.19;102978.56;5024071;28;20244;-63
2022/03/21 10:18:59;;;;;;;26.95;17.52;;;;;;;13.17;46.93;102975.13;5024869;28;20037;-61
2022/03/21 10:21:27;;;;;;;25.77;18.00;;;;;;;13.24;45.55;102978.78;5021578;28;20106;-61
2022/03/21 10:24:07;;;;;;;26.23;18.60;;;;;;;13.23;46.33;102968.69;5029019;28;20039;-61
2022/03/21 10:26:35;;;;;;;25.65;17.75;;;;;;;13.21;45.37;102969.97;5026594;28;20041;-64
2022/03/21 10:29:10;;;;;;;30.25;17.83;;;;;;;13.34;45.11;102974.69;5021998;28;20049;-62
2022/03/21 10:31:42;;;;;;;26.88;18.17;;;;;;;13.40;45.20;102977.44;5024789;28;20034;-62
2022/03/21 10:34:09;;;;;;;;;;;;;;;13.33;47.21;102970.19;5028731;28;20029;-61
2022/03/21 10:36:37;;;;;;;29.75;18.45;;;;;;;13.35;44.78;102968.88;5032789;28;20011;-62
2022/03/21 10:39:10;;;;;;;29.85;20.08;;;;;;;13.34;45.65;102978.31;5032913;28;20112;-62
2022/03/21 10:41:37;;;;;;;30.63;18.83;;;;;;;13.26;45.42;102972.97;5031345;28;20495;-62
2022/03/21 10:44:04;;;;;;;31.42;19.50;;;;;;;13.37;45.73;102971.44;5029423;28;20078;-61
2022/03/21 10:46:29;;;;;;;33.10;20.63;;;;;;;13.41;45.38;102976.38;5039217;28;20057;-61
2022/03/21 10:49:04;;;;;;;30.13;20.35;;;;;;;13.48;45.60;102974.41;5030025;28;20147;-61
2022/03/21 10:51:49;;;;;;;32.17;20.50;;;;;;;13.57;45.67;102972.22;5030626;28;20037;-60
2022/03/21 10:54:40;;;;;;;31.13;19.83;;;;;;;13.67;45.83;102969.78;5030639;28;20480;-61
2022/03/21 10:57:24;;;;;;;29.10;19.60;;;;;;;13.75;44.63;102963.09;5028919;28;20376;-61
2022/03/21 10:59:49;;;;;;;27.67;19.70;;;;;;;13.84;45.44;102958.13;5032042;28;20128;-61
2022/03/21 11:02:17;;;;;;;30.08;20.48;;;;;;;13.93;46.02;102957.63;5031558;28;20171;-61
2022/03/21 11:04:44;;;;;;;26.80;19.40;;;;;;;14.02;45.03;102958.22;5031672;28;20064;-60
2022/03/21 11:07:11;;;;;;;30.95;19.38;;;;;;;13.98;45.12;102952.22;5030485;28;20108;-61
2022/03/21 11:09:38;;;;;;;29.42;19.42;;;;;;;14.03;45.28;102953.47;5028637;28;20037;-62
2022/03/21 11:12:05;;;;;;;30.55;20.63;;;;;;;14.10;45.14;102948.72;5031962;28;20128;-62
2022/03/21 11:14:31;;;;;;;29.70;20.13;;;;;;;14.13;45.46;102946.31;5032453;28;20040;-61
2022/03/21 11:17:00;;;;;;;28.70;20.00;;;;;;;14.19;45.35;102958.53;5030554;28;20033;-61
2022/03/21 11:19:28;;;;;;;28.02;20.35;;;;;;;14.23;44.99;102949.47;5032590;28;20030;-60
2022/03/21 11:21:56;;;;;;;35.78;20.63;;;;;;;14.27;45.27;102947.09;5030487;28;20029;-61
2022/03/21 11:24:25;;;;;;;27.67;19.77;;;;;;;14.36;45.32;102942.06;5028868;28;20116;-61
2022/03/21 11:27:02;;;;;;;28.15;20.25;;;;;;;14.48;45.55;102946.69;5029038;28;20029;-61
2022/03/21 11:29:58;;;;;;;33.40;20.63;;;;;;;14.49;45.15;102951.22;5033893;28;20087;-60
2022/03/21 11:32:42;;;;;;;33.40;20.00;;;;;;;14.60;44.85;102940.38;5030749;28;20037;-61
2022/03/21 11:35:14;;;;;;;27.08;18.60;;;;;;;14.70;45.46;102941.59;5033268;28;20025;-61